Time;durP1;ratioP1;P1;durP2;ratioP2;P2;SDS_P1;SDS_P2;PMS_P1;PMS_P2;Temp;Humidity;BMP_temperature;BMP_pressure;BME280_temperature;BME280_humidity;BME280_pressure;Samples;Min_cycle;Max_cycle;Signal;HPM_P1;HPM_P2
2022/01/18 00:00:00;;;;;;;1.92;1.77;;;;;;;2.71;100.00;102086.25;5015548;28;20410;-59
2022/01/18 00:03:04;;;;;;;4.43;1.95;;;;;;;2.71;100.00;102080.75;5015667;28;20069;-59
2022/01/18 00:06:08;;;;;;;14.10;4.28;;;;;;;2.68;100.00;102081.50;5015353;28;20053;-59
2022/01/18 00:09:11;;;;;;;6.47;3.00;;;;;;;2.63;100.00;102084.56;5015155;28;20411;-59
2022/01/18 00:18:49;;;;;;;3.67;1.63;;;;;;;2.41;100.00;102077.09;5014952;28;20069;-59
2022/01/18 00:22:04;;;;;;;14.05;2.88;;;;;;;2.37;100.00;102065.25;5015247;28;20056;-59
2022/01/18 00:25:07;;;;;;;4.40;3.20;;;;;;;2.34;100.00;102076.19;5014602;28;20052;-59
2022/01/18 00:28:11;;;;;;;14.35;3.45;;;;;;;2.32;100.00;102068.28;4995576;28;20049;-59
2022/01/18 00:34:28;;;;;;;20.52;3.55;;;;;;;2.23;100.00;102057.53;4996800;28;20069;-59
2022/01/18 00:37:37;;;;;;;4.50;2.93;;;;;;;2.21;100.00;102061.78;4995297;28;20057;-59
2022/01/18 00:40:40;;;;;;;4.63;4.10;;;;;;;2.12;100.00;102053.00;4994629;28;20510;-58
2022/01/18 00:43:44;;;;;;;32.20;5.60;;;;;;;2.20;100.00;102060.22;4995437;28;20045;-60
2022/01/18 00:46:48;;;;;;;11.63;4.15;;;;;;;2.17;100.00;102059.00;5012625;28;20045;-58
2022/01/18 00:50:00;;;;;;;3.75;2.42;;;;;;;2.20;100.00;102055.53;5014689;28;20049;-59
2022/01/18 00:53:09;;;;;;;13.50;4.72;;;;;;;2.14;100.00;102045.97;5014677;28;20193;-59
2022/01/18 00:59:17;;;;;;;11.02;4.20;;;;;;;2.05;100.00;102044.63;5014473;28;20521;-58
2022/01/18 01:02:20;;;;;;;9.00;3.60;;;;;;;1.94;100.00;102044.44;5014488;28;20056;-58
2022/01/18 01:05:24;;;;;;;6.05;4.35;;;;;;;1.92;100.00;102038.50;5014088;28;20069;-58
2022/01/18 01:08:27;;;;;;;13.07;5.80;;;;;;;1.85;100.00;102040.31;5014239;28;20056;-58
2022/01/18 01:11:32;;;;;;;8.88;4.32;;;;;;;1.82;100.00;102025.34;5013812;28;20529;-58
2022/01/18 01:14:36;;;;;;;12.63;4.65;;;;;;;1.79;100.00;102028.03;5014345;28;20394;-58
2022/01/18 01:17:48;;;;;;;11.60;3.58;;;;;;;1.69;100.00;102034.13;5014348;28;20497;-58
2022/01/18 01:47:10;;;;;;;26.55;3.60;;;;;;;1.68;100.00;102027.81;4993980;28;20391;-58
2022/01/18 01:50:18;;;;;;;6.75;5.97;;;;;;;1.72;100.00;102025.13;4993835;28;20482;-58
2022/01/18 01:53:25;;;;;;;14.45;4.43;;;;;;;1.72;100.00;102022.41;4993606;28;20045;-58
2022/01/18 01:56:30;;;;;;;8.13;4.00;;;;;;;1.66;100.00;102019.16;5022409;28;20048;-58
2022/01/18 01:59:34;;;;;;;13.70;3.35;;;;;;;1.61;100.00;102018.63;5033137;28;20048;-58
2022/01/18 02:02:37;;;;;;;2.75;1.17;;;;;;;1.57;100.00;102017.78;5032544;28;20048;-58
2022/01/18 02:05:41;;;;;;;10.57;3.20;;;;;;;1.51;100.00;102011.78;5017143;28;20505;-57
2022/01/18 02:08:45;;;;;;;3.25;2.90;;;;;;;1.50;100.00;102012.94;4993806;28;20122;-58
2022/01/18 02:11:50;;;;;;;14.23;2.75;;;;;;;1.48;100.00;102012.50;4993335;28;20045;-58
2022/01/18 02:14:58;;;;;;;8.73;2.38;;;;;;;1.43;100.00;102010.84;4993462;28;20057;-58
2022/01/18 02:24:46;;;;;;;4.85;3.75;;;;;;;1.44;100.00;101995.97;4993254;28;20065;-57
2022/01/18 02:27:50;;;;;;;16.90;2.63;;;;;;;1.41;100.00;101995.88;5010551;28;20065;-57
2022/01/18 02:30:54;;;;;;;8.82;3.17;;;;;;;1.31;100.00;101980.00;5012306;28;20057;-57
2022/01/18 02:34:24;;;;;;;7.38;3.33;;;;;;;1.34;100.00;101985.56;5013032;28;20133;-57
2022/01/18 02:37:27;;;;;;;18.83;2.78;;;;;;;1.29;100.00;101993.28;4993350;28;20399;-57
2022/01/18 02:40:33;;;;;;;8.13;3.75;;;;;;;1.24;100.00;101983.38;4992810;28;20050;-57
2022/01/18 02:43:50;;;;;;;16.95;5.20;;;;;;;1.20;100.00;101981.72;4993210;28;20057;-57
2022/01/18 02:46:54;;;;;;;7.05;2.30;;;;;;;1.17;100.00;101979.72;5010581;28;20053;-57
2022/01/18 02:49:57;;;;;;;10.27;3.70;;;;;;;1.15;100.00;101977.31;5012694;28;20061;-57
2022/01/18 02:53:01;;;;;;;2.72;1.33;;;;;;;1.16;100.00;101970.69;5012864;28;20049;-57
2022/01/18 02:56:04;;;;;;;9.07;3.92;;;;;;;1.19;100.00;101971.91;5013308;28;20073;-57
2022/01/18 02:59:16;;;;;;;27.00;2.85;;;;;;;1.13;100.00;101965.91;5016904;28;20433;-57
2022/01/18 03:05:45;;;;;;;15.95;3.10;;;;;;;1.02;100.00;101962.13;5016698;28;20057;-57
2022/01/18 03:08:49;;;;;;;5.78;3.35;;;;;;;1.01;100.00;101957.03;5016427;28;20410;-57
2022/01/18 03:11:52;;;;;;;3.83;3.33;;;;;;;1.00;100.00;101958.16;5016228;28;20069;-57
2022/01/18 03:14:55;;;;;;;4.75;2.72;;;;;;;1.00;100.00;101963.66;5016220;28;20052;-57
2022/01/18 03:18:00;;;;;;;4.53;3.08;;;;;;;0.97;100.00;101943.25;5016125;28;20057;-57
2022/01/18 03:21:03;;;;;;;5.80;2.67;;;;;;;0.96;100.00;101944.38;5016326;28;20068;-57
2022/01/18 03:30:57;;;;;;;1.95;1.70;;;;;;;0.89;100.00;101946.97;5036128;28;20052;-57
2022/01/18 03:34:00;;;;;;;4.07;1.95;;;;;;;0.87;100.00;101946.53;5035292;28;20057;-57
2022/01/18 03:37:04;;;;;;;3.00;2.50;;;;;;;0.87;100.00;101945.75;4998227;28;20053;-57
2022/01/18 03:40:09;;;;;;;9.48;1.90;;;;;;;0.86;100.00;101936.72;4998919;28;20073;-57
2022/01/18 03:43:14;;;;;;;0.98;0.95;;;;;;;0.81;100.00;101945.22;4996535;28;20483;-58
2022/01/18 03:46:17;;;;;;;7.60;1.40;;;;;;;0.75;100.00;101938.44;5005453;28;20052;-57
2022/01/18 03:49:23;;;;;;;2.80;1.60;;;;;;;0.76;100.00;101948.25;5015689;28;20057;-57
2022/01/18 03:52:27;;;;;;;2.50;1.67;;;;;;;0.73;100.00;101940.75;5015331;28;20049;-57
2022/01/18 03:55:31;;;;;;;7.50;2.60;;;;;;;0.72;100.00;101930.91;5015515;28;20057;-57
2022/01/18 03:58:34;;;;;;;3.20;3.00;;;;;;;0.75;100.00;101938.44;5015538;28;20052;-57
2022/01/18 04:01:38;;;;;;;4.47;3.22;;;;;;;0.75;100.00;101935.69;5015655;28;20525;-57
2022/01/18 04:04:41;;;;;;;4.43;2.08;;;;;;;0.66;100.00;101932.34;5015858;28;20053;-56
2022/01/18 04:07:46;;;;;;;11.27;2.85;;;;;;;0.57;100.00;101924.31;5014928;28;20513;-57
2022/01/18 04:10:49;;;;;;;3.15;2.10;;;;;;;0.51;100.00;101916.75;5015120;28;20052;-56
2022/01/18 04:13:53;;;;;;;2.70;2.47;;;;;;;0.48;100.00;101917.44;5014904;28;20498;-57
2022/01/18 04:29:47;;;;;;;1.98;1.80;;;;;;;0.55;100.00;101898.41;5035198;28;19913;-57
2022/01/18 04:32:51;;;;;;;7.65;3.15;;;;;;;0.56;100.00;101891.81;5034790;28;20053;-57
2022/01/18 04:35:54;;;;;;;2.33;1.95;;;;;;;0.51;100.00;101889.31;5015002;28;20050;-57
2022/01/18 04:38:58;;;;;;;13.02;3.47;;;;;;;0.51;100.00;101889.31;4995239;28;20053;-56
2022/01/18 04:42:02;;;;;;;3.63;1.90;;;;;;;0.49;100.00;101894.38;4994998;28;20069;-57
2022/01/18 04:48:31;;;;;;;5.50;4.05;;;;;;;0.49;100.00;101899.84;5003002;28;20045;-56
2022/01/18 04:51:34;;;;;;;10.70;3.08;;;;;;;0.56;100.00;101900.03;5014286;28;20053;-56
2022/01/18 04:54:42;;;;;;;15.07;4.43;;;;;;;0.53;100.00;101889.75;5014639;28;20052;-56
2022/01/18 04:57:52;;;;;;;16.00;3.55;;;;;;;0.53;100.00;101889.75;4994615;28;20049;-56
2022/01/18 05:00:59;;;;;;;5.32;3.20;;;;;;;0.49;100.00;101884.22;4994949;28;20046;-56
2022/01/18 05:04:03;;;;;;;8.75;2.72;;;;;;;0.47;100.00;101877.50;4994714;28;20061;-56
2022/01/18 05:07:09;;;;;;;5.78;2.63;;;;;;;0.43;100.00;101879.38;5014371;28;20053;-56
2022/01/18 05:10:14;;;;;;;4.80;3.10;;;;;;;0.45;100.00;101888.81;5014484;28;20064;-56
2022/01/18 05:13:36;;;;;;;1.70;1.63;;;;;;;0.42;100.00;101872.28;5014469;28;20053;-56
2022/01/18 05:19:55;;;;;;;6.43;3.92;;;;;;;0.30;100.00;101870.47;5013356;28;20052;-57
2022/01/18 05:23:01;;;;;;;2.58;2.25;;;;;;;0.30;100.00;101864.19;5014000;28;20109;-56
2022/01/18 05:26:04;;;;;;;10.27;5.85;;;;;;;0.27;100.00;101867.63;5016054;28;20060;-56
2022/01/18 05:29:08;;;;;;;15.70;5.50;;;;;;;0.24;100.00;101865.63;5033410;28;20049;-56
2022/01/18 05:32:11;;;;;;;9.02;3.25;;;;;;;0.23;100.00;101880.47;5033952;28;20052;-56
2022/01/18 05:35:15;;;;;;;5.25;2.40;;;;;;;0.21;100.00;101882.75;5024860;28;20057;-56
2022/01/18 05:38:18;;;;;;;2.85;1.75;;;;;;;0.18;100.00;101877.97;4994287;28;20057;-56
2022/01/18 05:41:21;;;;;;;10.80;2.63;;;;;;;0.18;100.00;101872.50;4994008;28;20062;-56
2022/01/18 05:44:25;;;;;;;12.43;3.00;;;;;;;0.19;100.00;101872.16;4994012;28;20479;-56
2022/01/18 05:47:28;;;;;;;1.52;1.42;;;;;;;0.20;100.00;101876.47;4993723;28;20053;-57
2022/01/18 05:50:32;;;;;;;5.95;2.83;;;;;;;0.27;100.00;101867.63;4994121;28;20395;-56
2022/01/18 05:53:36;;;;;;;2.75;1.95;;;;;;;0.30;100.00;101875.16;4993908;28;20053;-56
2022/01/18 05:56:40;;;;;;;11.02;3.75;;;;;;;0.33;100.00;101874.41;5009620;28;20052;-56
2022/01/18 05:59:44;;;;;;;19.20;4.65;;;;;;;0.32;100.00;101867.38;5012723;28;20053;-56
2022/01/18 06:09:20;;;;;;;2.42;1.92;;;;;;;0.19;100.00;101868.63;5012715;28;20049;-56
2022/01/18 06:12:26;;;;;;;7.32;3.42;;;;;;;0.12;100.00;101869.25;5013266;28;20585;-56
2022/01/18 06:15:31;;;;;;;1.65;1.48;;;;;;;0.09;100.00;101864.47;5013258;28;20053;-56
2022/01/18 06:18:34;;;;;;;12.20;2.40;;;;;;;0.07;100.00;101868.72;5013045;28;20410;-57
2022/01/18 06:21:37;;;;;;;15.90;2.15;;;;;;;0.06;100.00;101880.84;5013125;28;20509;-56
2022/01/18 06:24:41;;;;;;;3.72;2.20;;;;;;;0.07;100.00;101882.41;5019201;28;20056;-56
2022/01/18 06:27:45;;;;;;;5.18;3.67;;;;;;;0.10;100.00;101881.72;5026762;28;20056;-56
2022/01/18 06:30:48;;;;;;;2.15;1.88;;;;;;;0.12;100.00;101890.38;5032411;28;20040;-57
2022/01/18 06:33:51;;;;;;;3.08;2.38;;;;;;;0.14;100.00;101885.31;5032048;28;20056;-57
2022/01/18 06:36:55;;;;;;;20.30;3.72;;;;;;;0.11;100.00;101892.31;4996369;28;20057;-56
2022/01/18 06:40:00;;;;;;;5.43;2.40;;;;;;;0.11;100.00;101891.53;4993078;28;20054;-56
2022/01/18 06:43:03;;;;;;;4.18;2.28;;;;;;;0.05;100.00;101890.19;4993207;28;20057;-56
2022/01/18 06:46:06;;;;;;;3.63;2.20;;;;;;;0.02;100.00;101893.66;4993075;28;20411;-58
2022/01/18 06:49:10;;;;;;;5.68;2.03;;;;;;;-0.02;100.00;101896.28;5008825;28;20057;-57
2022/01/18 06:52:13;;;;;;;13.45;3.75;;;;;;;-0.06;100.00;101907.16;5014281;28;20053;-56
2022/01/18 06:55:17;;;;;;;2.17;2.08;;;;;;;-0.15;100.00;101912.03;5012707;28;20426;-56
2022/01/18 06:58:20;;;;;;;10.35;3.05;;;;;;;-0.20;100.00;101908.75;5012866;28;20057;-56
2022/01/18 07:01:23;;;;;;;3.88;3.42;;;;;;;-0.19;100.00;101904.88;5012783;28;20383;-57
2022/01/18 07:04:27;;;;;;;4.80;4.03;;;;;;;-0.19;100.00;101915.81;5012911;28;20068;-56
2022/01/18 07:07:30;;;;;;;15.18;5.07;;;;;;;-0.21;100.00;101918.91;5012463;28;20061;-57
2022/01/18 07:10:34;;;;;;;20.00;3.85;;;;;;;-0.17;100.00;101919.00;5012507;28;20042;-57
2022/01/18 07:13:37;;;;;;;3.15;2.55;;;;;;;-0.18;100.00;101911.94;5012553;28;20046;-57
2022/01/18 07:16:40;;;;;;;7.63;4.05;;;;;;;-0.26;100.00;101919.16;5012777;28;20473;-57
2022/01/18 07:19:44;;;;;;;8.80;5.03;;;;;;;-0.27;100.00;101920.31;5013275;28;20117;-56
2022/01/18 07:22:48;;;;;;;4.82;2.92;;;;;;;-0.23;100.00;101929.41;5012821;28;20057;-56
2022/01/18 07:25:53;;;;;;;9.43;3.10;;;;;;;-0.24;100.00;101925.06;5013683;28;20049;-56
2022/01/18 07:28:57;;;;;;;4.70;3.55;;;;;;;-0.18;100.00;101925.63;5031218;28;20061;-56
2022/01/18 07:32:00;;;;;;;10.82;2.83;;;;;;;-0.12;100.00;101925.00;5032191;28;20421;-57
2022/01/18 07:35:03;;;;;;;10.13;3.72;;;;;;;-0.03;100.00;101922.91;5026370;28;20471;-57
2022/01/18 07:38:12;;;;;;;5.63;3.63;;;;;;;0.04;100.00;101926.97;4992518;28;20038;-56
2022/01/18 07:41:15;;;;;;;5.90;3.88;;;;;;;0.13;100.00;101920.13;4992356;28;20170;-57
2022/01/18 07:44:19;;;;;;;2.60;2.28;;;;;;;0.11;100.00;101918.94;4995132;28;20053;-56
2022/01/18 07:47:23;;;;;;;3.42;2.58;;;;;;;0.24;100.00;101921.19;4996109;28;20045;-57
2022/01/18 07:50:27;;;;;;;14.00;2.63;;;;;;;0.32;100.00;101916.69;4996172;28;20482;-57
2022/01/18 07:53:30;;;;;;;3.03;2.17;;;;;;;0.46;100.00;101914.25;4995877;28;20077;-56
2022/01/18 07:56:34;;;;;;;6.05;3.20;;;;;;;0.53;100.00;101912.50;5009909;28;20045;-57
2022/01/18 07:59:38;;;;;;;5.20;3.92;;;;;;;0.60;100.00;101917.34;5015603;28;20078;-56
2022/01/18 08:02:42;;;;;;;2.17;1.90;;;;;;;0.69;100.00;101915.97;5015568;28;20509;-56
2022/01/18 08:05:47;;;;;;;3.05;2.35;;;;;;;0.78;100.00;101913.03;5015720;28;20067;-57
2022/01/18 08:08:51;;;;;;;4.22;2.25;;;;;;;0.73;100.00;101919.63;5014660;28;20057;-57
2022/01/18 08:11:54;;;;;;;2.22;1.85;;;;;;;0.77;100.00;101922.41;5014216;28;20053;-57
2022/01/18 08:15:11;;;;;;;3.33;2.10;;;;;;;0.82;100.00;101924.88;5014736;28;20497;-56
2022/01/18 08:18:15;;;;;;;6.95;2.95;;;;;;;0.84;100.00;101911.59;5015145;28;20053;-56
2022/01/18 08:21:19;;;;;;;2.08;1.83;;;;;;;0.86;100.00;101909.31;5014082;28;20056;-57
2022/01/18 08:24:23;;;;;;;5.55;2.60;;;;;;;0.86;100.00;101916.72;5010216;28;20053;-57
2022/01/18 08:27:26;;;;;;;9.80;4.40;;;;;;;0.91;100.00;101917.22;5016030;28;20053;-56
2022/01/18 08:30:29;;;;;;;7.57;3.70;;;;;;;0.99;100.00;101924.47;5014796;28;20048;-57
2022/01/18 08:33:33;;;;;;;3.30;3.00;;;;;;;1.04;100.00;101921.41;5014718;28;20061;-57
2022/01/18 08:36:37;;;;;;;5.70;2.88;;;;;;;1.14;100.00;101918.13;5013992;28;20049;-57
2022/01/18 08:39:42;;;;;;;12.23;3.65;;;;;;;1.15;100.00;101922.44;5013658;28;20395;-57
2022/01/18 08:42:46;;;;;;;6.63;3.65;;;;;;;1.19;100.00;101922.53;5014132;28;20041;-57
2022/01/18 08:45:49;;;;;;;11.18;4.60;;;;;;;1.27;100.00;101927.78;5013911;28;20048;-57
2022/01/18 08:48:52;;;;;;;6.47;1.77;;;;;;;1.35;100.00;101926.78;5014889;28;20057;-56
2022/01/18 08:51:56;;;;;;;10.50;4.95;;;;;;;1.38;100.00;101928.00;5014744;28;20406;-57
2022/01/18 08:54:59;;;;;;;2.30;2.10;;;;;;;1.42;100.00;101924.16;5014659;28;20049;-49
2022/01/18 08:58:03;;;;;;;42.40;5.85;;;;;;;1.34;100.00;101930.66;5014705;28;20044;-49
2022/01/18 09:01:07;;;;;;;15.45;5.85;;;;;;;1.36;100.00;101936.59;5014244;28;20061;-49
2022/01/18 09:04:10;;;;;;;10.75;4.15;;;;;;;1.51;100.00;101940.41;5014500;28;20053;-49
2022/01/18 09:07:16;;;;;;;24.20;2.58;;;;;;;1.59;100.00;101928.41;5013893;28;20505;-49
2022/01/18 09:10:23;;;;;;;8.93;4.38;;;;;;;1.67;100.00;101932.09;5014221;28;20049;-49
2022/01/18 09:13:28;;;;;;;8.00;3.90;;;;;;;1.69;100.00;101943.50;5013393;28;20406;-49
2022/01/18 09:16:32;;;;;;;4.22;2.85;;;;;;;1.78;100.00;101938.53;5013457;28;20053;-49
2022/01/18 09:19:35;;;;;;;3.40;2.58;;;;;;;1.84;100.00;101942.59;5013486;28;20064;-49
2022/01/18 09:22:42;;;;;;;5.18;2.65;;;;;;;1.88;100.00;101944.25;5013849;28;20057;-49
2022/01/18 09:25:46;;;;;;;5.10;2.75;;;;;;;1.96;100.00;101943.22;5003393;28;20054;-49
2022/01/18 09:28:50;;;;;;;8.00;1.77;;;;;;;2.00;100.00;101940.50;5033608;28;20056;-47
2022/01/18 09:31:54;;;;;;;14.27;3.30;;;;;;;2.12;100.00;101937.59;5033148;28;20052;-49
2022/01/18 09:34:58;;;;;;;10.10;2.22;;;;;;;2.13;100.00;101944.66;5028917;28;20049;-49
2022/01/18 09:38:02;;;;;;;7.70;2.55;;;;;;;2.19;100.00;101937.69;4993443;28;20053;-49
2022/01/18 09:41:11;;;;;;;11.88;3.90;;;;;;;2.24;100.00;101923.63;4994166;28;20376;-49
2022/01/18 09:44:14;;;;;;;4.40;3.03;;;;;;;2.30;100.00;101941.41;4993801;28;20077;-47
2022/01/18 09:47:18;;;;;;;4.47;2.13;;;;;;;2.34;100.00;101938.72;4993713;28;20057;-47
2022/01/18 09:50:27;;;;;;;7.80;3.83;;;;;;;2.34;100.00;101945.00;4993849;28;20049;-49
2022/01/18 09:53:31;;;;;;;18.05;3.53;;;;;;;2.37;100.00;101949.78;4993587;28;20065;-49
2022/01/18 09:56:35;;;;;;;10.27;3.03;;;;;;;2.40;100.00;101951.78;5007629;28;20049;-49
2022/01/18 09:59:38;;;;;;;18.38;5.28;;;;;;;2.41;100.00;101956.13;5012039;28;20057;-49
2022/01/18 10:02:42;;;;;;;8.75;3.42;;;;;;;2.39;100.00;101957.63;5013103;28;20403;-49
2022/01/18 10:05:49;;;;;;;4.32;2.92;;;;;;;2.30;100.00;101949.66;5012862;28;20053;-50
2022/01/18 10:08:52;;;;;;;6.65;2.83;;;;;;;2.25;100.00;101950.75;5012412;28;20044;-50
2022/01/18 10:12:21;;;;;;;5.93;4.10;;;;;;;2.26;100.00;101954.31;5013173;28;20113;-49
2022/01/18 10:15:25;;;;;;;7.13;4.60;;;;;;;2.29;100.00;101953.56;5012746;28;20053;-50
2022/01/18 10:18:54;;;;;;;17.90;4.57;;;;;;;2.07;100.00;101952.44;5012425;28;20502;-49
2022/01/18 10:22:10;;;;;;;12.18;3.53;;;;;;;1.98;100.00;101942.84;5013150;28;20092;-50
2022/01/18 10:25:21;;;;;;;14.20;4.32;;;;;;;1.97;100.00;101941.25;5012676;28;20057;-49
2022/01/18 10:28:33;;;;;;;12.83;4.27;;;;;;;1.91;100.00;101937.19;4993293;28;20057;-49
2022/01/18 10:31:57;;;;;;;9.10;3.88;;;;;;;1.82;100.00;101931.19;4992820;28;20049;-49
2022/01/18 10:35:05;;;;;;;6.35;3.63;;;;;;;1.82;100.00;101933.94;4994758;28;20072;-49
2022/01/18 10:38:18;;;;;;;15.45;3.65;;;;;;;1.81;100.00;101937.81;5012493;28;20411;-49
2022/01/18 10:41:30;;;;;;;8.98;3.47;;;;;;;1.84;100.00;101924.13;5012321;28;20513;-49
2022/01/18 10:44:34;;;;;;;12.35;3.33;;;;;;;1.81;100.00;101927.63;5012394;28;20069;-49
2022/01/18 10:47:46;;;;;;;14.02;5.93;;;;;;;1.78;100.00;101928.34;5012869;28;20490;-49
2022/01/18 10:50:50;;;;;;;6.55;4.30;;;;;;;1.76;100.00;101924.38;5012331;28;20049;-49
2022/01/18 10:54:07;;;;;;;20.20;4.65;;;;;;;1.82;100.00;101922.94;5013038;28;20049;-49
2022/01/18 10:57:12;;;;;;;34.60;7.35;;;;;;;1.81;100.00;101913.09;5012375;28;20497;-49
2022/01/18 11:00:22;;;;;;;11.80;4.03;;;;;;;1.87;100.00;101908.88;5012570;28;20394;-49
2022/01/18 11:03:26;;;;;;;6.68;4.07;;;;;;;1.90;100.00;101902.66;5011872;28;20068;-49
2022/01/18 11:06:30;;;;;;;15.13;4.68;;;;;;;2.10;100.00;101899.47;5027053;28;20052;-49
2022/01/18 11:09:34;;;;;;;4.47;1.90;;;;;;;2.16;100.00;101905.47;5030890;28;20067;-49
2022/01/18 11:12:44;;;;;;;4.22;2.08;;;;;;;2.26;100.00;101899.31;5032047;28;20121;-49
2022/01/18 11:15:51;;;;;;;9.95;3.25;;;;;;;2.36;100.00;101898.69;5014248;28;20054;-49
2022/01/18 11:18:54;;;;;;;2.97;2.45;;;;;;;2.42;100.00;101890.94;4994396;28;20061;-49
2022/01/18 11:22:01;;;;;;;7.75;4.07;;;;;;;2.46;100.00;101887.06;4996430;28;20049;-50
2022/01/18 11:25:05;;;;;;;5.78;3.60;;;;;;;2.55;100.00;101893.09;4995889;28;20509;-50
2022/01/18 11:28:10;;;;;;;14.63;5.53;;;;;;;2.57;100.00;101882.53;4996384;28;20049;-50
2022/01/18 11:31:14;;;;;;;5.88;4.10;;;;;;;2.68;100.00;101877.16;4996436;28;20065;-57
2022/01/18 11:34:33;;;;;;;6.93;3.78;;;;;;;2.76;100.00;101874.13;4996622;28;20383;-56
2022/01/18 11:37:46;;;;;;;12.52;5.47;;;;;;;2.87;100.00;101864.06;4996301;28;20053;-56
2022/01/18 11:40:57;;;;;;;17.80;4.40;;;;;;;3.01;100.00;101853.22;4996658;28;20105;-56
2022/01/18 11:44:19;;;;;;;9.15;3.50;;;;;;;2.95;100.00;101854.72;4996068;28;20079;-56
2022/01/18 11:47:27;;;;;;;;;;;;;;;3.12;100.00;101853.31;4996683;28;20057;-57
2022/01/18 11:50:41;;;;;;;6.72;2.30;;;;;;;3.19;100.00;101836.91;4996134;28;20279;-56
2022/01/18 11:54:06;;;;;;;3.13;2.63;;;;;;;3.27;100.00;101826.75;4996404;28;20391;-56
2022/01/18 11:57:21;;;;;;;11.77;3.67;;;;;;;3.39;100.00;101837.50;4995798;28;20395;-57
2022/01/18 12:00:25;;;;;;;11.73;5.30;;;;;;;3.47;100.00;101831.69;4996020;28;20061;-57
2022/01/18 12:03:32;;;;;;;13.68;4.45;;;;;;;3.57;100.00;101827.44;4996000;28;20478;-58
2022/01/18 12:06:46;;;;;;;8.70;4.72;;;;;;;3.73;100.00;101822.47;4995832;28;20053;-57
2022/01/18 12:09:50;;;;;;;6.40;1.85;;;;;;;3.84;100.00;101824.13;4995756;28;20402;-57
2022/01/18 12:12:55;;;;;;;17.33;4.55;;;;;;;4.01;100.00;101822.69;4995236;28;20073;-58
2022/01/18 12:16:03;;;;;;;9.18;4.07;;;;;;;4.22;100.00;101822.03;5005916;28;20053;-57
2022/01/18 12:19:08;;;;;;;13.80;4.57;;;;;;;4.34;100.00;101814.25;5014796;28;20069;-56
2022/01/18 12:22:12;;;;;;;14.75;5.30;;;;;;;4.43;100.00;101822.97;5015134;28;20072;-57
2022/01/18 12:25:31;;;;;;;18.90;5.00;;;;;;;4.41;100.00;101814.28;5014893;28;20048;-56
2022/01/18 12:28:56;;;;;;;7.88;4.25;;;;;;;4.42;100.00;101810.34;4994960;28;20053;-56
2022/01/18 12:35:22;;;;;;;10.18;3.95;;;;;;;4.68;100.00;101787.19;5015005;28;20064;-56
2022/01/18 12:38:25;;;;;;;4.60;2.92;;;;;;;4.98;100.00;101781.41;5014557;28;20073;-56
2022/01/18 12:41:45;;;;;;;11.68;3.80;;;;;;;5.03;100.00;101773.50;5014508;28;20057;-56
2022/01/18 12:44:49;;;;;;;5.80;1.65;;;;;;;5.10;100.00;101769.97;5014477;28;20061;-56
2022/01/18 12:48:00;;;;;;;7.75;1.25;;;;;;;5.04;100.00;101764.06;5014328;28;20052;-56
2022/01/18 12:51:08;;;;;;;0.77;0.30;;;;;;;5.35;100.00;101752.25;5014495;28;20049;-55
2022/01/18 12:54:12;;;;;;;1.42;0.75;;;;;;;5.66;100.00;101753.44;5014646;28;20125;-55
2022/01/18 12:57:19;;;;;;;1.05;0.70;;;;;;;5.78;100.00;101753.03;4994276;28;20053;-55
2022/01/18 13:00:22;;;;;;;5.60;1.52;;;;;;;5.77;100.00;101751.47;4996072;28;20049;-56
2022/01/18 13:03:42;;;;;;;9.85;1.40;;;;;;;5.76;100.00;101740.81;5014358;28;20052;-56
2022/01/18 13:06:46;;;;;;;2.25;1.67;;;;;;;5.85;100.00;101742.00;5014346;28;20060;-56
2022/01/18 13:09:58;;;;;;;1.85;1.27;;;;;;;5.88;100.00;101741.22;5014340;28;20056;-56
2022/01/18 13:13:02;;;;;;;1.58;0.95;;;;;;;5.98;100.00;101740.41;5013971;28;20057;-56
2022/01/18 13:22:58;;;;;;;0.98;0.80;;;;;;;5.99;100.00;101753.03;5013571;28;20045;-50
2022/01/18 13:26:02;;;;;;;10.45;1.83;;;;;;;6.15;100.00;101751.84;5016001;28;20064;-49
2022/01/18 13:29:18;;;;;;;3.72;1.00;;;;;;;6.16;100.00;101739.56;5032794;28;20060;-49
2022/01/18 13:32:30;;;;;;;3.55;1.80;;;;;;;6.07;100.00;101739.97;5014779;28;20060;-49
2022/01/18 13:35:33;;;;;;;2.05;1.30;;;;;;;6.11;100.00;101738.00;5013124;28;20077;-49
2022/01/18 13:38:37;;;;;;;4.13;1.33;;;;;;;6.13;100.00;101736.41;5013032;28;20049;-49
2022/01/18 13:41:40;;;;;;;3.50;1.52;;;;;;;6.04;100.00;101722.19;5012067;28;20056;-49
2022/01/18 13:45:09;;;;;;;1.33;1.10;;;;;;;6.04;100.00;101722.19;5012708;28;20489;-49
2022/01/18 13:48:13;;;;;;;3.00;1.38;;;;;;;5.96;100.00;101726.19;4992543;28;20514;-49
2022/01/18 13:51:19;;;;;;;12.10;1.95;;;;;;;5.90;100.00;101744.38;4993287;28;20050;-49
2022/01/18 13:54:28;;;;;;;6.65;1.00;;;;;;;5.81;100.00;101757.78;4993797;28;20062;-49
2022/01/18 13:57:31;;;;;;;4.95;2.55;;;;;;;5.82;100.00;101764.91;4993315;28;20080;-48
2022/01/18 14:00:35;;;;;;;3.97;1.65;;;;;;;5.82;100.00;101756.59;4993440;28;20499;-48
2022/01/18 14:03:43;;;;;;;1.95;1.85;;;;;;;5.78;100.00;101760.56;4993736;28;20046;-49
2022/01/18 14:06:51;;;;;;;6.38;1.50;;;;;;;5.82;100.00;101753.03;5009994;28;20053;-48
2022/01/18 14:09:58;;;;;;;4.38;1.25;;;;;;;5.74;100.00;101752.25;5012413;28;20056;-48
2022/01/18 14:13:03;;;;;;;1.13;0.77;;;;;;;5.67;100.00;101743.19;5010736;28;20117;-48
2022/01/18 14:16:28;;;;;;;1.30;1.02;;;;;;;5.62;100.00;101736.06;5004497;28;20049;-48
2022/01/18 14:19:33;;;;;;;7.18;1.42;;;;;;;5.60;100.00;101729.38;5011711;28;20056;-48
2022/01/18 14:22:38;;;;;;;5.15;1.77;;;;;;;5.59;100.00;101723.03;5012504;28;20053;-48
2022/01/18 14:25:42;;;;;;;13.75;2.33;;;;;;;5.64;100.00;101725.41;5000077;28;20045;-48
2022/01/18 14:29:00;;;;;;;6.78;1.02;;;;;;;5.63;100.00;101729.34;5019751;28;20052;-48
2022/01/18 14:32:15;;;;;;;2.75;1.48;;;;;;;5.59;100.00;101711.22;5011715;28;20371;-48
2022/01/18 14:35:24;;;;;;;1.80;0.68;;;;;;;5.54;100.00;101709.66;5006758;28;20053;-48
2022/01/18 14:38:28;;;;;;;4.05;1.90;;;;;;;5.53;100.00;101710.81;5002249;28;20082;-48
2022/01/18 14:41:31;;;;;;;5.13;1.45;;;;;;;5.51;100.00;101710.41;5012286;28;20056;-48
2022/01/18 14:47:47;;;;;;;2.72;1.40;;;;;;;5.79;100.00;101698.53;4996738;28;20045;-48
2022/01/18 14:50:51;;;;;;;2.95;0.68;;;;;;;5.81;100.00;101685.91;5012053;28;20056;-49
2022/01/18 14:53:54;;;;;;;2.70;1.33;;;;;;;5.74;100.00;101677.59;5015800;28;20052;-48
2022/01/18 14:56:58;;;;;;;11.98;2.78;;;;;;;5.66;100.00;101681.59;5034768;28;20056;-48
2022/01/18 15:00:06;;;;;;;6.80;2.08;;;;;;;5.66;100.00;101700.94;4995527;28;20061;-48
2022/01/18 15:03:11;;;;;;;4.97;1.75;;;;;;;5.70;100.00;101701.72;4996509;28;20049;-49
2022/01/18 15:06:14;;;;;;;19.63;1.65;;;;;;;5.76;100.00;101702.88;5006539;28;20053;-48
2022/01/18 15:09:18;;;;;;;7.32;2.15;;;;;;;5.79;100.00;101699.34;5015073;28;20044;-49
2022/01/18 15:12:21;;;;;;;0.63;0.32;;;;;;;5.81;100.00;101691.44;5015217;28;20500;-48
2022/01/18 15:15:29;;;;;;;1.98;1.15;;;;;;;5.70;100.00;101689.84;5015480;28;20045;-49
2022/01/18 15:18:33;;;;;;;18.05;1.92;;;;;;;5.88;100.00;101680.38;5016049;28;20061;-49
2022/01/18 15:21:36;;;;;;;4.63;1.17;;;;;;;5.84;100.00;101685.13;5014892;28;20057;-49
2022/01/18 15:24:40;;;;;;;2.97;1.27;;;;;;;5.77;100.00;101682.34;5015154;28;20563;-48
2022/01/18 15:27:43;;;;;;;9.48;1.80;;;;;;;5.75;100.00;101670.91;5028854;28;20045;-49
2022/01/18 15:30:47;;;;;;;13.70;2.35;;;;;;;5.80;100.00;101676.03;5015883;28;20045;-48
2022/01/18 15:33:51;;;;;;;5.45;1.80;;;;;;;5.81;100.00;101674.03;5014936;28;20044;-48
2022/01/18 15:36:54;;;;;;;2.22;0.60;;;;;;;5.83;100.00;101683.53;5015760;28;20415;-48
2022/01/18 15:40:01;;;;;;;10.13;1.58;;;;;;;5.96;100.00;101695.75;5015704;28;20052;-48
2022/01/18 15:43:04;;;;;;;4.65;2.15;;;;;;;5.98;100.00;101700.88;5011828;28;20053;-48
2022/01/18 15:46:09;;;;;;;4.72;1.77;;;;;;;5.92;100.00;101700.50;5014665;28;20049;-48
2022/01/18 15:49:13;;;;;;;2.20;1.77;;;;;;;5.77;100.00;101693.41;5006994;28;20049;-49
2022/01/18 15:52:16;;;;;;;1.95;1.10;;;;;;;5.64;100.00;101692.25;5014096;28;20052;-49
2022/01/18 15:55:20;;;;;;;2.25;0.95;;;;;;;5.50;100.00;101681.19;5014561;28;20061;-48